Time;durP1;ratioP1;P1;durP2;ratioP2;P2;SDS_P1;SDS_P2;PMS_P1;PMS_P2;Temp;Humidity;BMP_temperature;BMP_pressure;BME280_temperature;BME280_humidity;BME280_pressure;Samples;Min_cycle;Max_cycle;Signal;HPM_P1;HPM_P2
2024/01/13 09:20:57;;;;;;;36.53;26.63;;;2.50;99.50;;;;;;5071402;28;20355;-66
2024/01/13 09:23:23;;;;;;;36.72;25.60;;;3.00;98.80;;;;;;5071207;28;20025;-66
2024/01/13 09:25:48;;;;;;;38.35;25.20;;;3.60;95.00;;;;;;5071521;28;20020;-67
2024/01/13 09:28:14;;;;;;;32.28;22.10;;;4.00;84.80;;;;;;5071353;28;20478;-69
2024/01/13 09:30:42;;;;;;;28.52;20.35;;;4.00;87.80;;;;;;5071128;28;20082;-67
2024/01/13 09:33:08;;;;;;;24.35;18.35;;;4.30;85.30;;;;;;5071218;28;20017;-69
2024/01/13 09:35:33;;;;;;;25.88;19.15;;;4.40;76.10;;;;;;5071245;28;20131;-70
2024/01/13 09:38:00;;;;;;;23.27;17.55;;;4.50;73.60;;;;;;5071035;28;20657;-67
2024/01/13 09:40:25;;;;;;;65.28;39.80;;;5.00;72.30;;;;;;5070909;28;20056;-67
2024/01/13 09:43:01;;;;;;;40.08;27.58;;;5.60;66.80;;;;;;5070661;28;20017;-65
2024/01/13 09:45:27;;;;;;;34.40;24.70;;;5.90;63.50;;;;;;5070667;28;20471;-66
2024/01/13 09:47:57;;;;;;;29.98;22.80;;;6.10;62.50;;;;;;5070823;28;20064;-71
2024/01/13 09:50:23;;;;;;;28.70;21.23;;;6.60;58.60;;;;;;5070794;28;20051;-71
2024/01/13 09:52:48;;;;;;;26.33;19.52;;;7.00;57.30;;;;;;5070672;28;20020;-70
2024/01/13 09:55:16;;;;;;;24.60;17.85;;;7.50;56.10;;;;;;5070826;28;20426;-67
2024/01/13 09:57:43;;;;;;;24.35;19.45;;;7.70;53.60;;;;;;5070925;28;20031;-65
2024/01/13 10:00:09;;;;;;;24.73;20.00;;;8.00;51.80;;;;;;5070367;28;20048;-71
2024/01/13 10:02:35;;;;;;;31.25;24.70;;;8.30;53.30;;;;;;5070213;28;20487;-67
2024/01/13 10:05:00;;;;;;;31.67;24.80;;;8.30;49.30;;;;;;5070529;28;20058;-60
2024/01/13 10:07:34;;;;;;;30.08;23.08;;;8.10;51.20;;;;;;5070301;28;20021;-69
2024/01/13 10:10:00;;;;;;;32.35;25.70;;;8.00;50.20;;;;;;5070174;28;20033;-62
2024/01/13 10:12:26;;;;;;;29.48;24.67;;;7.80;51.50;;;;;;5070153;28;20037;-64
2024/01/13 10:14:52;;;;;;;31.17;24.45;;;7.90;51.80;;;;;;5070563;28;20033;-67
2024/01/13 10:17:18;;;;;;;30.05;26.35;;;8.10;51.10;;;;;;5070261;28;20140;-69
2024/01/13 10:19:44;;;;;;;34.47;29.30;;;8.40;51.30;;;;;;5069648;28;20044;-69
2024/01/13 10:22:10;;;;;;;35.10;29.42;;;8.60;50.80;;;;;;5069805;28;20016;-70
2024/01/13 10:24:36;;;;;;;35.83;31.42;;;8.90;51.00;;;;;;5070034;28;20093;-72
2024/01/13 10:27:04;;;;;;;31.90;28.25;;;9.10;49.80;;;;;;5070102;28;20036;-64
2024/01/13 10:29:30;;;;;;;45.67;37.33;;;9.20;48.80;;;;;;5069766;28;20029;-71
2024/01/13 10:31:56;;;;;;;40.45;34.42;;;9.40;49.30;;;;;;5058695;28;20040;-69
2024/01/13 10:34:22;;;;;;;44.08;37.80;;;9.40;49.70;;;;;;5056516;28;20360;-67
2024/01/13 10:36:47;;;;;;;41.35;35.72;;;9.20;48.50;;;;;;5056049;28;20036;-67
2024/01/13 10:39:14;;;;;;;41.25;34.88;;;9.10;48.90;;;;;;5055941;28;20021;-60
2024/01/13 10:41:46;;;;;;;54.17;43.55;;;9.30;48.80;;;;;;5056018;28;20068;-71
2024/01/13 10:44:16;;;;;;;52.08;42.08;;;9.30;47.30;;;;;;5056255;28;20075;-67
2024/01/13 10:46:48;;;;;;;58.67;45.45;;;9.20;48.40;;;;;;5055739;28;20025;-66
2024/01/13 10:49:27;;;;;;;38.25;32.47;;;9.00;49.00;;;;;;5055849;28;20037;-64
2024/01/13 10:51:57;;;;;;;35.70;28.75;;;9.00;48.60;;;;;;5055626;28;20025;-65
2024/01/13 10:54:25;;;;;;;41.38;33.65;;;9.20;48.40;;;;;;5055861;28;20375;-62
2024/01/13 10:56:53;;;;;;;30.95;25.85;;;9.40;46.90;;;;;;5055856;28;20053;-69
2024/01/13 10:59:19;;;;;;;26.98;22.38;;;9.40;47.70;;;;;;5055757;28;20384;-61
2024/01/13 11:01:47;;;;;;;27.48;22.88;;;9.20;46.90;;;;;;5055908;28;20099;-65
2024/01/13 11:04:14;;;;;;;22.90;20.17;;;8.80;46.40;;;;;;5054579;28;20465;-65
2024/01/13 11:06:41;;;;;;;16.45;14.75;;;8.80;46.90;;;;;;5055350;28;20076;-67
2024/01/13 11:09:09;;;;;;;13.90;12.57;;;8.50;45.10;;;;;;5055317;28;20033;-63
2024/01/13 11:11:41;;;;;;;14.55;13.13;;;8.60;44.90;;;;;;5055501;28;20374;-65
2024/01/13 11:14:13;;;;;;;13.57;12.18;;;8.90;45.80;;;;;;5055449;28;20518;-65
2024/01/13 11:16:44;;;;;;;11.73;10.52;;;9.10;44.10;;;;;;5056217;28;20029;-61
2024/01/13 11:19:11;;;;;;;10.52;9.52;;;9.20;42.30;;;;;;5055372;28;20037;-67
2024/01/13 11:21:37;;;;;;;11.25;10.07;;;9.00;43.30;;;;;;5055579;28;20107;-58
2024/01/13 11:24:12;;;;;;;11.45;10.27;;;9.30;42.90;;;;;;5055850;28;20017;-70
2024/01/13 11:26:46;;;;;;;11.80;10.60;;;9.60;43.90;;;;;;5055333;28;20032;-65
2024/01/13 11:29:20;;;;;;;12.32;11.02;;;10.00;41.40;;;;;;5054995;28;20560;-66
2024/01/13 11:31:47;;;;;;;11.50;10.40;;;10.00;41.50;;;;;;5055038;28;20378;-65
2024/01/13 11:34:17;;;;;;;10.13;9.02;;;10.00;42.50;;;;;;5054949;28;20459;-64
2024/01/13 11:36:49;;;;;;;9.68;8.68;;;10.10;40.30;;;;;;5055043;28;20451;-67
2024/01/13 11:39:17;;;;;;;11.00;9.50;;;10.40;40.00;;;;;;5054884;28;20089;-59
2024/01/13 11:41:47;;;;;;;14.48;12.98;;;10.60;39.60;;;;;;5054550;28;20021;-71
2024/01/13 11:44:23;;;;;;;10.90;9.80;;;10.80;39.10;;;;;;5054139;28;20013;-70
2024/01/13 11:46:59;;;;;;;11.90;10.75;;;10.80;39.50;;;;;;5054508;28;20017;-65
2024/01/13 11:49:43;;;;;;;19.75;15.88;;;10.90;43.40;;;;;;5054654;28;20060;-66
2024/01/13 11:52:15;;;;;;;17.58;15.15;;;10.80;38.20;;;;;;5054602;28;20082;-68
2024/01/13 11:54:43;;;;;;;20.17;15.40;;;10.70;40.00;;;;;;5054479;28;20018;-62
2024/01/13 11:57:11;;;;;;;15.27;13.60;;;10.40;40.30;;;;;;5054609;28;20021;-65
2024/01/13 11:59:38;;;;;;;13.45;12.02;;;10.30;42.40;;;;;;5054273;28;20087;-65
2024/01/13 12:02:04;;;;;;;13.85;12.35;;;10.50;41.80;;;;;;5054472;28;20028;-64
2024/01/13 12:04:31;;;;;;;13.40;12.00;;;10.70;39.30;;;;;;5054345;28;20018;-67
2024/01/13 12:06:57;;;;;;;12.73;11.30;;;10.60;38.60;;;;;;5054302;28;20475;-65
2024/01/13 12:09:24;;;;;;;11.63;10.43;;;10.70;42.80;;;;;;5054398;28;20031;-68
2024/01/13 12:12:02;;;;;;;12.13;10.70;;;11.00;40.40;;;;;;5054629;28;20117;-66
2024/01/13 12:14:29;;;;;;;11.02;9.82;;;11.30;40.30;;;;;;5054460;28;20033;-68
2024/01/13 12:16:56;;;;;;;10.73;9.48;;;11.50;40.50;;;;;;5054083;28;20025;-65
2024/01/13 12:19:23;;;;;;;10.45;9.35;;;11.60;39.60;;;;;;5053952;28;20090;-65
2024/01/13 12:21:49;;;;;;;9.45;8.55;;;11.60;39.10;;;;;;5054564;28;20386;-71
2024/01/13 12:24:15;;;;;;;9.40;8.02;;;11.60;38.40;;;;;;5054070;28;20031;-64
2024/01/13 12:26:41;;;;;;;7.88;7.05;;;11.60;38.10;;;;;;5054240;28;20466;-62
2024/01/13 12:29:08;;;;;;;8.05;7.25;;;11.40;37.70;;;;;;5053810;28;20493;-70
2024/01/13 12:31:34;;;;;;;7.95;7.15;;;11.40;39.70;;;;;;5053676;28;20151;-72
2024/01/13 12:34:15;;;;;;;8.40;7.60;;;11.60;39.30;;;;;;5054113;28;20040;-65
2024/01/13 12:36:42;;;;;;;11.77;10.25;;;11.80;38.20;;;;;;5053847;28;20024;-62
2024/01/13 12:39:08;;;;;;;23.10;20.70;;;11.60;39.30;;;;;;5053913;28;20025;-62
2024/01/13 12:41:34;;;;;;;18.88;16.77;;;11.30;39.50;;;;;;5053666;28;20025;-67
2024/01/13 12:44:01;;;;;;;18.90;16.92;;;10.80;39.00;;;;;;5053564;28;20021;-66
2024/01/13 12:46:28;;;;;;;22.17;18.83;;;10.00;39.70;;;;;;5053523;28;20064;-69
2024/01/13 12:48:54;;;;;;;22.50;19.38;;;9.60;40.90;;;;;;5053572;28;20061;-68
2024/01/13 12:51:20;;;;;;;26.08;21.70;;;9.20;42.00;;;;;;5053675;28;20021;-66
2024/01/13 12:53:46;;;;;;;27.08;22.17;;;8.90;43.00;;;;;;5053296;28;20021;-70
2024/01/13 12:56:14;;;;;;;69.28;59.20;;;8.80;44.40;;;;;;5053503;28;20056;-66
2024/01/13 12:58:40;;;;;;;91.18;77.72;;;8.40;45.90;;;;;;5053517;28;20021;-63
2024/01/13 13:01:05;;;;;;;89.65;76.95;;;8.20;47.00;;;;;;5053269;28;20051;-64
2024/01/13 13:03:32;;;;;;;69.28;60.35;;;8.00;47.50;;;;;;5053302;28;20047;-64
2024/01/13 13:05:58;;;;;;;56.60;48.47;;;7.90;47.30;;;;;;5053410;28;20025;-66
2024/01/13 13:08:24;;;;;;;68.70;58.97;;;7.80;47.30;;;;;;5053374;28;20025;-63
2024/01/13 13:10:50;;;;;;;54.25;46.97;;;7.70;48.10;;;;;;5053345;28;20093;-64
2024/01/13 13:13:15;;;;;;;47.17;40.95;;;7.40;50.10;;;;;;5053559;28;20029;-63
2024/01/13 13:15:41;;;;;;;59.83;50.65;;;7.30;49.00;;;;;;5053242;28;20494;-68
2024/01/13 13:18:07;;;;;;;47.47;42.47;;;7.10;50.00;;;;;;5053302;28;20147;-60
2024/01/13 13:20:33;;;;;;;44.28;38.85;;;7.10;50.50;;;;;;5052893;28;20065;-65
2024/01/13 13:22:59;;;;;;;39.80;34.03;;;6.90;50.50;;;;;;5053204;28;20033;-69
2024/01/13 13:25:25;;;;;;;33.95;28.45;;;6.80;52.00;;;;;;5053251;28;20033;-63
2024/01/13 13:27:52;;;;;;;27.05;23.30;;;6.60;53.10;;;;;;5052949;28;20021;-62
2024/01/13 13:30:18;;;;;;;34.80;29.67;;;6.50;53.90;;;;;;5052868;28;20037;-64
2024/01/13 13:32:43;;;;;;;47.47;41.50;;;6.30;54.20;;;;;;5053025;28;20032;-68
2024/01/13 13:35:10;;;;;;;39.83;33.42;;;6.30;55.40;;;;;;5053186;28;20025;-63
2024/01/13 13:37:35;;;;;;;43.25;34.22;;;6.30;56.30;;;;;;5053035;28;20029;-65
2024/01/13 13:40:01;;;;;;;50.85;42.40;;;6.10;56.60;;;;;;5053205;28;20023;-62
2024/01/13 13:42:27;;;;;;;35.00;28.92;;;6.00;57.80;;;;;;5053327;28;20419;-67
2024/01/13 13:44:53;;;;;;;87.90;67.28;;;6.00;58.30;;;;;;5052782;28;20047;-65
2024/01/13 13:47:19;;;;;;;89.22;60.75;;;5.90;59.40;;;;;;5052941;28;20021;-62
2024/01/13 13:49:45;;;;;;;42.97;33.50;;;5.90;58.90;;;;;;5052885;28;20098;-70
2024/01/13 13:52:11;;;;;;;35.05;28.05;;;5.70;60.30;;;;;;5053101;28;20100;-64
2024/01/13 13:54:36;;;;;;;33.22;26.92;;;5.60;61.60;;;;;;5052852;28;20458;-67
2024/01/13 13:57:03;;;;;;;29.58;23.58;;;5.40;64.20;;;;;;5053047;28;20379;-62
2024/01/13 13:59:28;;;;;;;29.55;25.30;;;5.40;66.00;;;;;;5052680;28;20100;-63
2024/01/13 14:01:54;;;;;;;30.88;24.05;;;5.20;67.10;;;;;;5053055;28;20163;-66
2024/01/13 14:04:21;;;;;;;27.20;20.95;;;5.30;68.00;;;;;;5052881;28;20021;-70
2024/01/13 14:06:47;;;;;;;23.58;18.95;;;5.40;67.60;;;;;;5055181;28;20036;-62
2024/01/13 14:09:14;;;;;;;27.95;22.17;;;5.60;64.40;;;;;;5056641;28;20386;-65
2024/01/13 14:11:40;;;;;;;31.92;22.02;;;5.60;63.60;;;;;;5056732;28;20021;-65
2024/01/13 14:14:05;;;;;;;25.65;20.63;;;5.50;64.50;;;;;;5056488;28;20411;-67
2024/01/13 14:16:32;;;;;;;24.63;20.88;;;5.40;65.20;;;;;;5056577;28;20390;-71
2024/01/13 14:18:58;;;;;;;36.05;28.83;;;5.30;67.50;;;;;;5056078;28;20495;-66
2024/01/13 14:21:24;;;;;;;35.65;29.25;;;5.20;67.20;;;;;;5056869;28;20477;-65
2024/01/13 14:23:50;;;;;;;32.97;26.35;;;5.00;70.30;;;;;;5056258;28;20490;-68
2024/01/13 14:26:16;;;;;;;52.35;42.97;;;5.00;71.60;;;;;;5056467;28;20025;-64
2024/01/13 14:28:42;;;;;;;43.58;34.30;;;4.90;73.80;;;;;;5056306;28;20028;-64
2024/01/13 14:31:08;;;;;;;40.70;32.22;;;4.80;75.60;;;;;;5056184;28;20017;-65
2024/01/13 14:33:34;;;;;;;45.30;34.65;;;4.80;74.80;;;;;;5056518;28;20070;-64
2024/01/13 14:36:00;;;;;;;46.42;37.53;;;4.80;73.20;;;;;;5056538;28;20017;-70
2024/01/13 14:38:28;;;;;;;46.58;35.95;;;4.90;73.30;;;;;;5056070;28;20032;-61
2024/01/13 14:40:54;;;;;;;42.17;32.60;;;4.70;75.60;;;;;;5056155;28;20029;-62
2024/01/13 14:43:20;;;;;;;37.20;27.58;;;4.60;77.60;;;;;;5055944;28;20118;-70
2024/01/13 14:45:46;;;;;;;45.85;32.53;;;4.50;79.70;;;;;;5056059;28;20029;-68
2024/01/13 14:48:12;;;;;;;41.72;32.85;;;4.40;80.90;;;;;;5056411;28;20021;-68
2024/01/13 14:50:38;;;;;;;38.97;31.35;;;4.20;82.90;;;;;;5056114;28;20135;-65
2024/01/13 14:53:04;;;;;;;35.13;27.48;;;4.10;85.90;;;;;;5055780;28;20483;-68
2024/01/13 14:55:30;;;;;;;35.40;27.27;;;3.80;89.90;;;;;;5055757;28;20032;-64
2024/01/13 14:57:56;;;;;;;32.85;25.80;;;3.70;91.10;;;;;;5055862;28;20386;-64
2024/01/13 15:00:21;;;;;;;49.08;37.90;;;3.70;91.30;;;;;;5055880;28;20187;-68
2024/01/13 15:02:47;;;;;;;53.28;37.10;;;3.60;92.00;;;;;;5055640;28;20021;-69
2024/01/13 15:05:14;;;;;;;41.47;32.15;;;3.60;92.10;;;;;;5055756;28;20021;-64
2024/01/13 15:07:40;;;;;;;51.55;38.15;;;3.60;92.70;;;;;;5055746;28;20029;-67
2024/01/13 15:10:06;;;;;;;37.83;29.17;;;3.40;93.50;;;;;;5055972;28;20045;-67
2024/01/13 15:12:31;;;;;;;35.15;27.15;;;3.20;94.60;;;;;;5055606;28;20074;-70
2024/01/13 15:14:57;;;;;;;27.95;22.13;;;3.10;95.60;;;;;;5055726;28;20425;-66
2024/01/13 15:17:23;;;;;;;30.85;24.25;;;2.90;96.60;;;;;;5055618;28;20076;-71
2024/01/13 15:19:48;;;;;;;28.13;22.05;;;2.80;97.70;;;;;;5055544;28;20122;-65
2024/01/13 15:22:14;;;;;;;25.08;21.00;;;2.80;98.20;;;;;;5055746;28;20017;-67
2024/01/13 15:24:40;;;;;;;33.72;25.80;;;2.80;98.00;;;;;;5055161;28;20047;-67
2024/01/13 15:27:06;;;;;;;47.75;33.40;;;2.80;97.90;;;;;;5055227;28;20071;-65
2024/01/13 15:29:32;;;;;;;45.22;34.15;;;2.90;97.50;;;;;;5055349;28;20129;-67
2024/01/13 15:31:57;;;;;;;41.67;32.75;;;3.00;97.20;;;;;;5055092;28;20029;-61
2024/01/13 15:34:23;;;;;;;42.15;36.28;;;3.00;96.90;;;;;;5055068;28;20021;-67
2024/01/13 15:36:49;;;;;;;75.07;54.22;;;3.00;96.90;;;;;;5055254;28;20079;-68
2024/01/13 15:39:16;;;;;;;86.30;59.90;;;3.00;97.00;;;;;;5055377;28;20025;-66
2024/01/13 15:41:42;;;;;;;99.03;69.28;;;2.90;96.80;;;;;;5054809;28;20024;-69
2024/01/13 15:44:08;;;;;;;65.03;48.97;;;2.90;96.80;;;;;;5055103;28;20028;-66
2024/01/13 15:46:34;;;;;;;55.42;41.40;;;2.90;96.80;;;;;;5055444;28;20021;-69
2024/01/13 15:49:01;;;;;;;40.47;31.95;;;3.10;96.60;;;;;;5055121;28;20103;-70
2024/01/13 15:51:27;;;;;;;41.55;31.95;;;3.40;95.10;;;;;;5054896;28;20029;-64
2024/01/13 15:53:52;;;;;;;51.75;38.08;;;3.50;94.10;;;;;;5055456;28;20087;-63
2024/01/13 15:56:18;;;;;;;90.00;59.50;;;3.50;93.90;;;;;;5054665;28;20474;-68
2024/01/13 15:58:44;;;;;;;206.70;122.38;;;3.40;93.70;;;;;;5055076;28;20058;-69
2024/01/13 16:01:11;;;;;;;420.20;228.57;;;3.40;93.20;;;;;;5054691;28;20402;-65
2024/01/13 16:03:37;;;;;;;399.30;212.70;;;3.30;93.70;;;;;;5054590;28;20027;-66
2024/01/13 16:06:04;;;;;;;370.00;195.75;;;3.20;94.60;;;;;;5054707;28;20426;-68
2024/01/13 16:08:30;;;;;;;488.88;253.75;;;3.10;94.80;;;;;;5054848;28;20463;-63
2024/01/13 16:10:55;;;;;;;679.58;377.63;;;3.00;95.10;;;;;;5053977;28;20029;-69
2024/01/13 16:13:21;;;;;;;608.92;326.63;;;2.80;95.20;;;;;;5054732;28;20028;-65
2024/01/13 16:15:48;;;;;;;520.22;281.98;;;2.70;96.00;;;;;;5054696;28;20028;-65
2024/01/13 16:18:14;;;;;;;367.70;190.95;;;2.70;96.40;;;;;;5054433;28;20029;-73
2024/01/13 16:20:39;;;;;;;309.08;160.95;;;2.80;95.30;;;;;;5054179;28;20029;-70
2024/01/13 16:23:06;;;;;;;259.55;138.68;;;3.00;94.20;;;;;;5053343;28;20415;-66
2024/01/13 16:25:38;;;;;;;239.77;123.88;;;3.10;92.50;;;;;;5054050;28;20425;-70
2024/01/13 16:28:04;;;;;;;219.25;126.05;;;3.20;91.60;;;;;;5054219;28;20025;-64
2024/01/13 16:30:30;;;;;;;258.25;164.05;;;3.30;91.10;;;;;;5053913;28;20055;-72
2024/01/13 16:32:56;;;;;;;321.80;203.10;;;3.30;91.00;;;;;;5052828;28;20473;-64
2024/01/13 16:35:22;;;;;;;274.60;173.85;;;3.10;92.20;;;;;;5054829;28;20043;-61
2024/01/13 16:37:47;;;;;;;231.40;146.43;;;2.80;93.30;;;;;;5054202;28;20033;-62
2024/01/13 16:40:13;;;;;;;269.20;162.23;;;2.80;94.00;;;;;;5053964;28;20025;-68
2024/01/13 16:42:40;;;;;;;201.10;125.88;;;2.60;94.40;;;;;;5053907;28;20492;-62
2024/01/13 16:45:07;;;;;;;136.23;89.88;;;2.50;95.10;;;;;;5054413;28;20029;-66
2024/01/13 16:47:32;;;;;;;143.88;91.65;;;2.40;95.40;;;;;;5054179;28;20017;-68
2024/01/13 16:49:58;;;;;;;130.15;84.53;;;2.40;95.70;;;;;;5053565;28;20036;-65
2024/01/13 16:52:24;;;;;;;112.35;73.93;;;2.60;94.80;;;;;;5053918;28;20092;-67
2024/01/13 16:54:50;;;;;;;100.72;67.25;;;2.60;94.40;;;;;;5053749;28;20021;-62
2024/01/13 16:57:17;;;;;;;90.05;59.50;;;2.80;93.50;;;;;;5053860;28;20025;-68
2024/01/13 16:59:43;;;;;;;74.22;51.88;;;2.90;92.20;;;;;;5053898;28;20036;-63
2024/01/13 17:02:09;;;;;;;69.68;47.47;;;2.90;91.30;;;;;;5053867;28;20028;-68
2024/01/13 17:04:35;;;;;;;57.35;43.58;;;3.00;91.30;;;;;;5053822;28;20025;-68
2024/01/13 17:07:01;;;;;;;52.88;39.30;;;2.90;91.60;;;;;;5053943;28;20032;-74
2024/01/13 17:09:26;;;;;;;57.58;41.58;;;2.80;91.90;;;;;;5053781;28;20033;-69
2024/01/13 17:11:52;;;;;;;52.78;38.90;;;2.90;91.60;;;;;;5052551;28;20025;-69
2024/01/13 17:14:20;;;;;;;49.30;36.65;;;2.90;92.30;;;;;;5053675;28;20076;-63
2024/01/13 17:16:46;;;;;;;48.28;35.08;;;2.90;92.30;;;;;;5053886;28;20115;-71
2024/01/13 17:19:11;;;;;;;39.67;29.85;;;2.90;92.10;;;;;;5053250;28;20129;-68
2024/01/13 17:21:38;;;;;;;44.10;33.08;;;3.00;92.10;;;;;;5053466;28;20550;-68
2024/01/13 17:24:04;;;;;;;35.78;27.65;;;3.00;91.50;;;;;;5054267;28;20032;-63
2024/01/13 17:26:30;;;;;;;36.40;27.98;;;3.00;91.40;;;;;;5053904;28;20024;-65
2024/01/13 17:28:56;;;;;;;63.13;43.20;;;3.00;91.20;;;;;;5053518;28;20029;-66
2024/01/13 17:31:22;;;;;;;46.60;33.72;;;3.00;90.90;;;;;;5053804;28;20074;-65
2024/01/13 17:33:50;;;;;;;44.95;32.38;;;2.90;91.80;;;;;;5053568;28;20088;-69
2024/01/13 17:36:16;;;;;;;48.08;36.10;;;2.90;91.50;;;;;;5053312;28;20467;-66
2024/01/13 17:38:42;;;;;;;46.20;33.65;;;3.00;91.40;;;;;;5053318;28;20028;-69
2024/01/13 17:41:09;;;;;;;47.33;33.47;;;2.90;90.90;;;;;;5055134;28;20025;-62
2024/01/13 17:43:35;;;;;;;43.67;31.58;;;2.80;91.40;;;;;;5057575;28;20017;-69
2024/01/13 17:46:01;;;;;;;43.40;31.92;;;2.80;91.10;;;;;;5057818;28;20036;-62
2024/01/13 17:48:27;;;;;;;40.10;29.70;;;2.80;91.20;;;;;;5057504;28;20533;-63
2024/01/13 17:50:53;;;;;;;42.42;31.90;;;2.70;91.20;;;;;;5057251;28;20057;-70
2024/01/13 17:53:19;;;;;;;45.78;33.00;;;2.70;91.20;;;;;;5057692;28;20053;-61
2024/01/13 17:55:50;;;;;;;55.35;37.50;;;2.60;91.00;;;;;;5057180;28;20121;-68
2024/01/13 17:58:16;;;;;;;47.80;34.28;;;2.60;90.40;;;;;;5057253;28;20072;-72
2024/01/13 18:00:42;;;;;;;54.83;38.08;;;2.60;90.40;;;;;;5057743;28;20360;-71
2024/01/13 18:03:09;;;;;;;56.67;40.28;;;2.60;90.70;;;;;;5057173;28;20024;-67
2024/01/13 18:05:35;;;;;;;51.47;37.28;;;2.50;90.60;;;;;;5056917;28;20422;-71
2024/01/13 18:08:00;;;;;;;56.55;38.78;;;2.50;91.40;;;;;;5056880;28;20024;-72
2024/01/13 18:10:26;;;;;;;48.53;34.72;;;2.50;91.00;;;;;;5056821;28;20088;-69
2024/01/13 18:12:53;;;;;;;54.08;39.85;;;2.40;90.70;;;;;;5057125;28;20018;-69
2024/01/13 18:15:20;;;;;;;50.20;35.97;;;2.30;90.60;;;;;;5055774;28;20414;-67
2024/01/13 18:17:46;;;;;;;51.30;35.55;;;2.20;91.70;;;;;;5057070;28;20025;-68
2024/01/13 18:20:13;;;;;;;48.05;34.53;;;2.30;91.40;;;;;;5056202;28;20118;-68
2024/01/13 18:22:40;;;;;;;49.42;35.53;;;2.30;91.10;;;;;;5056830;28;20029;-67
2024/01/13 18:25:06;;;;;;;51.47;37.10;;;2.20;91.10;;;;;;5056979;28;20025;-67
2024/01/13 18:27:32;;;;;;;51.92;35.80;;;2.30;90.80;;;;;;5057015;28;20518;-68
2024/01/13 18:29:59;;;;;;;64.63;43.97;;;2.10;91.30;;;;;;5056434;28;20136;-72
2024/01/13 18:32:24;;;;;;;58.70;41.10;;;2.00;92.00;;;;;;5056642;28;20155;-63
2024/01/13 18:34:50;;;;;;;48.83;35.38;;;1.90;93.20;;;;;;5056681;28;20075;-67
2024/01/13 18:37:16;;;;;;;44.28;34.97;;;1.80;93.30;;;;;;5056280;28;20381;-68
2024/01/13 18:39:42;;;;;;;42.42;30.88;;;1.80;93.30;;;;;;5056447;28;20083;-65
2024/01/13 18:42:07;;;;;;;47.30;32.25;;;1.90;93.00;;;;;;5056519;28;20021;-64
2024/01/13 18:44:33;;;;;;;45.22;31.08;;;2.00;92.10;;;;;;5056236;28;20530;-64
2024/01/13 18:46:59;;;;;;;41.38;30.75;;;2.00;92.30;;;;;;5056671;28;20108;-69
2024/01/13 18:49:25;;;;;;;47.35;32.63;;;2.10;91.70;;;;;;5055827;28;20071;-67
2024/01/13 18:51:50;;;;;;;52.97;36.33;;;2.00;91.20;;;;;;5056085;28;20053;-67
2024/01/13 18:54:16;;;;;;;48.17;33.55;;;2.00;91.00;;;;;;5056004;28;20517;-64
2024/01/13 18:56:43;;;;;;;52.67;35.15;;;2.00;90.70;;;;;;5056204;28;20060;-67
2024/01/13 18:59:09;;;;;;;54.25;36.85;;;2.00;90.70;;;;;;5056121;28;20100;-63
2024/01/13 19:01:35;;;;;;;65.90;42.20;;;1.90;90.20;;;;;;5055797;28;20100;-69
2024/01/13 19:04:01;;;;;;;62.25;41.95;;;1.80;90.60;;;;;;5055779;28;20044;-66
2024/01/13 19:06:27;;;;;;;75.93;50.15;;;1.80;91.10;;;;;;5055887;28;20021;-71
2024/01/13 19:08:53;;;;;;;67.35;47.45;;;1.80;91.00;;;;;;5055883;28;20024;-68
2024/01/13 19:11:21;;;;;;;59.78;41.25;;;1.70;90.90;;;;;;5055808;28;20013;-71
2024/01/13 19:13:47;;;;;;;79.43;51.80;;;1.70;91.10;;;;;;5055906;28;20032;-67
2024/01/13 19:16:13;;;;;;;87.45;58.20;;;1.70;90.90;;;;;;5055702;28;20028;-67
2024/01/13 19:18:38;;;;;;;85.15;56.58;;;1.60;91.30;;;;;;5055210;28;20108;-65
2024/01/13 19:21:04;;;;;;;66.95;46.53;;;1.40;92.60;;;;;;5055740;28;20159;-66
2024/01/13 19:23:30;;;;;;;62.72;43.92;;;1.30;93.20;;;;;;5055730;28;20021;-69
2024/01/13 19:25:55;;;;;;;76.25;52.33;;;1.40;92.80;;;;;;5055798;28;20037;-65
2024/01/13 19:28:21;;;;;;;57.35;41.03;;;1.40;92.00;;;;;;5055442;28;20096;-73
2024/01/13 19:30:47;;;;;;;77.78;52.42;;;1.40;92.90;;;;;;5055514;28;20043;-75
2024/01/13 19:33:12;;;;;;;62.90;41.78;;;1.30;93.60;;;;;;5055064;28;20070;-65
2024/01/13 19:35:38;;;;;;;48.40;35.83;;;1.10;94.20;;;;;;5055359;28;20468;-68
2024/01/13 19:38:06;;;;;;;67.88;45.58;;;1.10;94.00;;;;;;5055335;28;20025;-65
2024/01/13 19:40:32;;;;;;;54.72;35.67;;;1.20;92.80;;;;;;5055530;28;20056;-70
2024/01/13 19:42:58;;;;;;;46.63;33.47;;;1.10;93.80;;;;;;5055349;28;20509;-66
2024/01/13 19:45:25;;;;;;;48.35;34.05;;;1.20;93.60;;;;;;5055045;28;20028;-70
2024/01/13 19:47:51;;;;;;;49.70;34.75;;;1.20;92.90;;;;;;5054909;28;20021;-69
2024/01/13 19:50:17;;;;;;;58.80;40.53;;;1.20;92.30;;;;;;5055054;28;20033;-72
2024/01/13 19:52:43;;;;;;;67.32;45.25;;;1.20;91.70;;;;;;5055633;28;20032;-65
2024/01/13 19:55:09;;;;;;;73.75;46.67;;;1.20;92.40;;;;;;5054752;28;20025;-67
2024/01/13 19:57:35;;;;;;;60.50;40.88;;;1.10;92.80;;;;;;5055083;28;20025;-73
2024/01/13 20:00:04;;;;;;;60.80;39.20;;;1.00;93.10;;;;;;5054985;28;20471;-62
2024/01/13 20:02:30;;;;;;;79.38;51.47;;;1.00;93.30;;;;;;5054618;28;20021;-64
2024/01/13 20:04:56;;;;;;;77.90;51.40;;;0.90;94.10;;;;;;5054073;28;20113;-68
2024/01/13 20:07:21;;;;;;;58.97;40.45;;;0.80;94.80;;;;;;5054842;28;20017;-72
2024/01/13 20:09:47;;;;;;;70.63;46.95;;;0.70;95.00;;;;;;5055001;28;20029;-63
2024/01/13 20:12:13;;;;;;;55.92;37.97;;;0.70;95.10;;;;;;5054871;28;20032;-64
2024/01/13 20:14:39;;;;;;;69.18;47.42;;;0.80;95.20;;;;;;5054902;28;20021;-64
2024/01/13 20:17:08;;;;;;;57.08;38.67;;;0.80;93.60;;;;;;5054878;28;20021;-65
2024/01/13 20:19:34;;;;;;;57.30;37.75;;;0.80;93.90;;;;;;5054257;28;20098;-67
2024/01/13 20:21:59;;;;;;;48.75;34.28;;;0.80;94.30;;;;;;5054492;28;20017;-69
2024/01/13 20:24:28;;;;;;;54.80;37.22;;;0.80;93.80;;;;;;5054948;28;20075;-70
2024/01/13 20:26:54;;;;;;;68.90;46.47;;;0.90;93.60;;;;;;5054892;28;20025;-66
2024/01/13 20:29:19;;;;;;;55.85;37.08;;;0.90;91.90;;;;;;5054332;28;20364;-64
2024/01/13 20:31:45;;;;;;;62.20;39.97;;;0.80;91.70;;;;;;5054378;28;20025;-67
2024/01/13 20:34:11;;;;;;;60.05;39.92;;;0.80;91.70;;;;;;5054273;28;20134;-72
2024/01/13 20:36:40;;;;;;;65.93;44.63;;;0.70;91.90;;;;;;5054253;28;20021;-70
2024/01/13 20:39:06;;;;;;;68.90;43.75;;;0.70;91.60;;;;;;5054601;28;20029;-66
2024/01/13 20:41:31;;;;;;;70.00;44.33;;;0.70;91.50;;;;;;5054716;28;20151;-65
2024/01/13 20:43:57;;;;;;;81.25;49.58;;;0.70;91.60;;;;;;5054523;28;20024;-62
2024/01/13 20:46:23;;;;;;;91.13;56.42;;;0.70;91.40;;;;;;5054175;28;20536;-66
2024/01/13 20:48:48;;;;;;;69.63;47.10;;;0.70;90.60;;;;;;5054423;28;20021;-71
2024/01/13 20:51:14;;;;;;;59.53;39.78;;;0.60;91.20;;;;;;5054121;28;20466;-66
2024/01/13 20:53:40;;;;;;;59.42;39.53;;;0.60;91.80;;;;;;5054098;28;20485;-69
2024/01/13 20:56:06;;;;;;;59.50;40.78;;;0.60;91.60;;;;;;5054283;28;20027;-66
2024/01/13 20:58:32;;;;;;;75.90;48.78;;;0.60;91.20;;;;;;5054206;28;20029;-67
2024/01/13 21:00:59;;;;;;;52.90;37.03;;;0.60;91.20;;;;;;5053884;28;20450;-69
2024/01/13 21:03:25;;;;;;;53.05;36.42;;;0.50;92.70;;;;;;5054097;28;20131;-64
2024/01/13 21:05:51;;;;;;;69.68;44.65;;;0.40;93.20;;;;;;5054267;28;20045;-69
2024/01/13 21:08:17;;;;;;;80.03;53.70;;;0.40;93.20;;;;;;5053664;28;20364;-62
2024/01/13 21:10:43;;;;;;;98.25;69.28;;;0.20;93.90;;;;;;5053881;28;20112;-67
2024/01/13 21:13:09;;;;;;;87.57;58.17;;;0.10;94.80;;;;;;5053827;28;20017;-62
2024/01/13 21:15:35;;;;;;;81.47;56.22;;;-0.10;95.70;;;;;;5053367;28;20021;-69
2024/01/13 21:18:01;;;;;;;67.22;44.55;;;-0.10;96.30;;;;;;5053916;28;20028;-71
2024/01/13 21:20:27;;;;;;;68.13;45.25;;;0.00;96.30;;;;;;5053447;28;20054;-68
2024/01/13 21:22:53;;;;;;;57.97;41.25;;;0.10;95.90;;;;;;5053846;28;20493;-63
2024/01/13 21:25:19;;;;;;;58.90;40.03;;;0.10;95.70;;;;;;5053803;28;20075;-62
2024/01/13 21:27:47;;;;;;;53.58;36.55;;;0.20;94.40;;;;;;5053874;28;20031;-69
2024/01/13 21:30:13;;;;;;;55.95;40.08;;;0.20;93.20;;;;;;5053625;28;20041;-70
2024/01/13 21:32:45;;;;;;;50.85;35.63;;;0.20;93.00;;;;;;5053520;28;20025;-66
2024/01/13 21:35:13;;;;;;;70.55;45.47;;;0.20;92.30;;;;;;5053732;28;20048;-63
2024/01/13 21:37:39;;;;;;;52.42;35.90;;;0.20;92.40;;;;;;5053710;28;20071;-65
2024/01/13 21:40:06;;;;;;;53.05;36.72;;;0.20;92.40;;;;;;5053749;28;20075;-68
2024/01/13 21:42:31;;;;;;;60.03;38.85;;;0.10;92.30;;;;;;5053706;28;20019;-65
2024/01/13 21:44:58;;;;;;;53.72;36.78;;;0.20;92.20;;;;;;5053342;28;20527;-64
2024/01/13 21:47:24;;;;;;;56.40;35.65;;;0.10;92.70;;;;;;5053377;28;20475;-65
2024/01/13 21:49:50;;;;;;;58.50;38.05;;;0.10;92.30;;;;;;5053268;28;20059;-69
2024/01/13 21:52:16;;;;;;;52.83;33.63;;;0.10;92.10;;;;;;5053377;28;20037;-66